createdAt,value
2023-04-02T00:00:25.157Z,1.98
2023-04-02T00:03:42.547Z,1.83
2023-04-02T00:06:45.446Z,2.40
2023-04-02T00:09:48.387Z,1.80
2023-04-02T00:13:33.590Z,1.62
2023-04-02T00:16:36.823Z,2.03
2023-04-02T00:19:51.749Z,1.60
2023-04-02T00:22:56.274Z,2.60
2023-04-02T00:25:59.059Z,3.08
2023-04-02T00:29:03.969Z,1.80
2023-04-02T00:32:06.795Z,1.92
2023-04-02T00:35:29.525Z,1.80
2023-04-02T00:38:33.656Z,2.07
2023-04-02T00:41:38.795Z,1.67
2023-04-02T00:44:44.315Z,1.27
2023-04-02T00:47:47.285Z,1.20
2023-04-02T00:50:51.360Z,1.00
2023-04-02T00:53:56.449Z,1.00
2023-04-02T00:56:59.620Z,0.80
2023-04-02T01:00:19.315Z,1.02
2023-04-02T01:03:24.591Z,1.00
2023-04-02T01:06:37.314Z,1.10
2023-04-02T01:09:49.086Z,1.20
2023-04-02T01:13:18.884Z,1.00
2023-04-02T01:16:30.729Z,1.20
2023-04-02T01:19:50.480Z,1.55
2023-04-02T01:23:08.293Z,1.20
2023-04-02T01:26:44.751Z,1.20
2023-04-02T01:29:51.393Z,1.35
2023-04-02T01:32:54.724Z,1.40
2023-04-02T01:36:15.557Z,1.37
2023-04-02T01:39:33.320Z,1.33
2023-04-02T01:42:56.385Z,1.10
2023-04-02T01:45:59.846Z,1.10
2023-04-02T01:49:18.579Z,1.27
2023-04-02T01:52:38.220Z,1.00
2023-04-02T01:56:10.446Z,1.00
2023-04-02T01:59:17.035Z,1.10
2023-04-02T02:02:21.899Z,1.08
2023-04-02T02:05:25.640Z,0.80
2023-04-02T02:08:38.770Z,0.73
2023-04-02T02:11:42.141Z,0.75
2023-04-02T02:14:52.354Z,0.60
2023-04-02T02:18:02.359Z,0.57
2023-04-02T02:21:08.155Z,0.50
2023-04-02T02:24:26.841Z,0.47
2023-04-02T02:27:30.118Z,0.40
2023-04-02T02:30:47.418Z,0.50
2023-04-02T02:33:51.992Z,0.50
2023-04-02T02:37:04.759Z,0.65
2023-04-02T02:40:12.926Z,1.17
2023-04-02T02:43:17.162Z,0.93
2023-04-02T02:46:22.452Z,0.67
2023-04-02T02:49:32.321Z,0.75
2023-04-02T02:52:37.087Z,0.68
2023-04-02T02:55:40.559Z,0.90
2023-04-02T02:58:43.991Z,1.40
2023-04-02T03:01:47.517Z,3.00
2023-04-02T03:04:53.162Z,3.17
2023-04-02T03:07:57.419Z,1.27
2023-04-02T03:11:24.792Z,1.40
2023-04-02T03:14:53.682Z,1.42
2023-04-02T03:18:03.259Z,1.17
2023-04-02T03:21:18.610Z,1.08
2023-04-02T03:24:36.832Z,0.70
2023-04-02T03:27:42.688Z,0.70
2023-04-02T03:30:49.825Z,1.10
2023-04-02T03:33:57.536Z,1.00
2023-04-02T03:37:08.022Z,1.10
2023-04-02T03:40:22.145Z,0.90
2023-04-02T03:43:27.613Z,1.20
2023-04-02T03:46:42.630Z,1.00
2023-04-02T03:49:55.994Z,1.00
2023-04-02T03:53:01.600Z,1.10
2023-04-02T03:56:05.060Z,1.00
2023-04-02T03:59:22.288Z,0.93
2023-04-02T04:02:34.772Z,0.90
2023-04-02T04:05:46.040Z,0.70
2023-04-02T04:09:16.535Z,1.00
2023-04-02T04:12:48.793Z,0.70
2023-04-02T04:15:56.341Z,0.70
2023-04-02T04:19:10.909Z,0.57
2023-04-02T04:22:20.042Z,0.90
2023-04-02T04:25:33.994Z,1.00
2023-04-02T04:28:59.901Z,1.00
2023-04-02T04:32:32.111Z,1.20
2023-04-02T04:35:38.878Z,2.00
2023-04-02T04:38:49.382Z,1.30
2023-04-02T04:41:53.853Z,1.20
2023-04-02T04:45:21.981Z,1.23
2023-04-02T04:48:29.632Z,1.25
2023-04-02T04:51:44.773Z,1.20
2023-04-02T04:54:48.147Z,0.97
2023-04-02T04:57:56.485Z,1.33
2023-04-02T05:01:07.737Z,1.15
2023-04-02T05:04:11.652Z,1.20
2023-04-02T05:07:19.063Z,1.05
2023-04-02T05:10:34.871Z,1.10
2023-04-02T05:13:52.962Z,0.95
2023-04-02T05:17:07.960Z,1.27
2023-04-02T05:20:24.802Z,1.50
2023-04-02T05:23:31.348Z,1.30
2023-04-02T05:26:42.356Z,1.83
2023-04-02T05:29:48.561Z,1.50
2023-04-02T05:32:58.823Z,1.70
2023-04-02T05:36:11.803Z,1.65
2023-04-02T05:39:22.651Z,1.87
2023-04-02T05:42:31.859Z,2.40
2023-04-02T05:45:39.625Z,2.40
2023-04-02T05:48:44.789Z,2.40
2023-04-02T05:51:51.289Z,2.28
2023-04-02T05:55:04.616Z,1.60
2023-04-02T05:58:39.592Z,0.97
2023-04-02T06:01:48.263Z,1.08
2023-04-02T06:05:00.105Z,1.00
2023-04-02T06:08:13.535Z,0.90
2023-04-02T06:11:30.536Z,0.98
2023-04-02T06:14:33.611Z,0.90
2023-04-02T06:17:47.380Z,0.90
2023-04-02T06:20:51.089Z,1.08
2023-04-02T06:23:55.090Z,1.02
2023-04-02T06:27:02.991Z,0.95
2023-04-02T06:30:15.034Z,0.90
2023-04-02T06:33:19.155Z,1.30
2023-04-02T06:36:24.567Z,0.90
2023-04-02T06:39:29.856Z,1.10
2023-04-02T06:42:36.331Z,1.20
2023-04-02T06:45:42.866Z,1.30
2023-04-02T06:48:48.074Z,0.98
2023-04-02T06:51:52.846Z,1.20
2023-04-02T06:54:56.438Z,1.30
2023-04-02T06:57:59.801Z,1.20
2023-04-02T07:01:03.976Z,1.07
2023-04-02T07:04:08.580Z,1.08
2023-04-02T07:07:12.090Z,1.00
2023-04-02T07:10:16.395Z,1.20
2023-04-02T07:13:22.386Z,1.17
2023-04-02T07:16:27.409Z,1.33
2023-04-02T07:19:31.414Z,1.15
2023-04-02T07:22:35.090Z,1.10
2023-04-02T07:25:39.016Z,1.15
2023-04-02T07:28:42.069Z,1.17
2023-04-02T07:31:45.451Z,1.40
2023-04-02T07:34:49.177Z,1.23
2023-04-02T07:37:53.002Z,1.52
2023-04-02T07:40:55.865Z,1.23
2023-04-02T07:43:58.996Z,1.52
2023-04-02T07:47:01.903Z,1.40
2023-04-02T07:50:05.962Z,1.35
2023-04-02T07:53:27.174Z,1.30
2023-04-02T07:56:31.691Z,0.95
2023-04-02T07:59:34.573Z,1.20
2023-04-02T08:02:37.737Z,0.90
2023-04-02T08:05:40.760Z,1.00
2023-04-02T08:08:43.674Z,0.80
2023-04-02T08:11:46.867Z,0.88
2023-04-02T08:14:49.755Z,0.80
2023-04-02T08:17:53.585Z,0.80
2023-04-02T08:20:57.362Z,0.65
2023-04-02T08:24:00.424Z,0.70
2023-04-02T08:27:03.194Z,0.85
2023-04-02T08:30:08.060Z,0.98
2023-04-02T08:33:18.629Z,0.53
2023-04-02T08:36:27.677Z,0.57
2023-04-02T08:39:33.177Z,1.00
2023-04-02T08:43:06.239Z,0.95
2023-04-02T08:46:31.392Z,1.05
2023-04-02T08:50:15.411Z,0.70
2023-04-02T08:53:21.679Z,0.98
2023-04-02T08:56:32.583Z,1.02
2023-04-02T08:59:38.231Z,0.68
2023-04-02T09:02:47.120Z,0.70
2023-04-02T09:05:51.289Z,0.77
2023-04-02T09:08:54.969Z,0.70
2023-04-02T09:12:05.739Z,0.70
2023-04-02T09:15:47.580Z,0.60
2023-04-02T09:18:53.062Z,0.82
2023-04-02T09:22:01.903Z,0.77
2023-04-02T09:25:06.477Z,0.90
2023-04-02T09:28:11.003Z,1.00
2023-04-02T09:31:20.784Z,1.00
2023-04-02T09:34:35.529Z,0.80
2023-04-02T09:37:38.878Z,0.70
2023-04-02T09:40:52.440Z,0.80
2023-04-02T09:44:20.050Z,0.70
2023-04-02T09:47:27.466Z,1.08
2023-04-02T09:50:32.922Z,0.95
2023-04-02T09:53:39.866Z,1.00
2023-04-02T09:57:04.024Z,1.33
2023-04-02T10:00:30.435Z,1.17
2023-04-02T10:03:43.218Z,0.90
2023-04-02T10:06:50.111Z,0.90
2023-04-02T10:10:14.518Z,1.10
2023-04-02T10:13:24.788Z,0.93
2023-04-02T10:16:34.684Z,0.90
2023-04-02T10:19:56.576Z,0.90
2023-04-02T10:22:59.736Z,0.95
2023-04-02T10:26:08.473Z,0.80
2023-04-02T10:29:53.439Z,0.85
2023-04-02T10:32:58.169Z,0.50
2023-04-02T10:36:04.383Z,0.88
2023-04-02T10:39:29.622Z,0.80
2023-04-02T10:42:59.045Z,0.90
2023-04-02T10:46:13.783Z,1.02
2023-04-02T10:49:21.415Z,0.90
2023-04-02T10:52:31.393Z,1.30
2023-04-02T10:55:40.933Z,1.00
2023-04-02T10:59:17.731Z,1.57
2023-04-02T11:02:35.036Z,0.90
2023-04-02T11:05:44.165Z,0.90
2023-04-02T11:08:49.346Z,0.75
2023-04-02T11:11:54.597Z,1.00
2023-04-02T11:14:57.992Z,0.90
2023-04-02T11:18:01.266Z,0.77
2023-04-02T11:21:08.268Z,1.00
2023-04-02T11:24:36.998Z,1.08
2023-04-02T11:27:39.831Z,0.73
2023-04-02T11:30:42.687Z,0.97
2023-04-02T11:33:48.112Z,0.73
2023-04-02T11:36:55.083Z,0.68
2023-04-02T11:40:00.375Z,0.70
2023-04-02T11:43:36.000Z,0.68
2023-04-02T11:46:41.052Z,0.60
2023-04-02T11:49:56.478Z,1.00
2023-04-02T11:53:04.335Z,0.80
2023-04-02T11:56:08.054Z,0.55
2023-04-02T11:59:20.590Z,0.62
2023-04-02T12:02:29.426Z,0.83
2023-04-02T12:05:37.613Z,0.80
2023-04-02T12:08:56.986Z,1.10
2023-04-02T12:12:15.744Z,1.00
2023-04-02T12:15:44.432Z,0.70
2023-04-02T12:18:51.243Z,0.37
2023-04-02T12:21:54.343Z,0.60
2023-04-02T12:25:04.132Z,0.50
2023-04-02T12:28:09.671Z,0.47
2023-04-02T12:31:15.072Z,0.40
2023-04-02T12:34:23.541Z,0.70
2023-04-02T12:37:30.712Z,0.50
2023-04-02T12:40:33.380Z,0.85
2023-04-02T12:43:37.999Z,0.82
2023-04-02T12:46:41.049Z,0.62
2023-04-02T12:49:44.540Z,0.70
2023-04-02T12:52:50.049Z,1.00
2023-04-02T12:55:54.113Z,0.50
2023-04-02T12:59:00.845Z,0.60
2023-04-02T13:02:17.572Z,0.50
2023-04-02T13:06:00.447Z,0.70
2023-04-02T13:09:08.219Z,0.47
2023-04-02T13:12:34.314Z,0.70
2023-04-02T13:15:37.879Z,0.70
2023-04-02T13:18:41.137Z,0.70
2023-04-02T13:21:44.839Z,0.50
2023-04-02T13:24:47.733Z,0.50
2023-04-02T13:27:51.036Z,0.50
2023-04-02T13:30:53.998Z,0.50
2023-04-02T13:33:58.082Z,0.57
2023-04-02T13:37:00.834Z,0.40
2023-04-02T13:40:04.607Z,0.47
2023-04-02T13:43:08.310Z,0.45
2023-04-02T13:46:18.175Z,0.70
2023-04-02T13:49:22.012Z,0.50
2023-04-02T13:52:25.398Z,0.73
2023-04-02T13:55:30.695Z,0.50
2023-04-02T13:58:33.898Z,0.60
2023-04-02T14:01:37.515Z,0.60
2023-04-02T14:04:50.143Z,0.52
2023-04-02T14:08:06.580Z,1.10
2023-04-02T14:11:18.941Z,0.60
2023-04-02T14:14:40.000Z,0.50
2023-04-02T14:18:10.574Z,0.40
2023-04-02T14:21:29.192Z,0.30
2023-04-02T14:24:35.533Z,0.67
2023-04-02T14:28:09.986Z,0.70
2023-04-02T14:31:18.915Z,0.60
2023-04-02T14:34:29.160Z,1.42
2023-04-02T14:38:11.089Z,1.35
2023-04-02T14:41:18.212Z,0.90
2023-04-02T14:44:23.974Z,1.27
2023-04-02T14:47:54.351Z,1.17
2023-04-02T14:51:05.276Z,0.90
2023-04-02T14:54:37.361Z,1.17
2023-04-02T14:57:49.045Z,1.00
2023-04-02T15:00:56.849Z,1.55
2023-04-02T15:04:15.499Z,1.08
2023-04-02T15:07:20.260Z,1.10
2023-04-02T15:10:35.934Z,1.20
2023-04-02T15:13:41.966Z,1.00
2023-04-02T15:16:45.967Z,2.08
2023-04-02T15:20:02.684Z,1.20
2023-04-02T15:23:33.846Z,1.20
2023-04-02T15:27:25.051Z,1.02
2023-04-02T15:30:35.549Z,1.10
2023-04-02T15:33:43.278Z,1.10
2023-04-02T15:36:48.430Z,1.05
2023-04-02T15:40:16.601Z,0.80
2023-04-02T15:44:03.958Z,0.95
2023-04-02T15:47:06.716Z,1.03
2023-04-02T15:50:51.398Z,1.10
2023-04-02T15:54:16.967Z,1.30
2023-04-02T15:57:23.248Z,1.05
2023-04-02T16:00:31.236Z,1.10
2023-04-02T16:03:46.409Z,1.10
2023-04-02T16:07:24.857Z,2.12
2023-04-02T16:10:41.768Z,1.30
2023-04-02T16:13:47.111Z,0.80
2023-04-02T16:16:51.296Z,0.70
2023-04-02T16:20:04.984Z,0.80
2023-04-02T16:23:17.917Z,0.77
2023-04-02T16:26:45.857Z,0.52
2023-04-02T16:30:07.524Z,0.60
2023-04-02T16:33:31.636Z,0.43
2023-04-02T16:36:54.039Z,0.50
2023-04-02T16:40:42.084Z,4.80
2023-04-02T16:44:18.446Z,5.10
2023-04-02T16:47:28.527Z,6.03
2023-04-02T16:50:44.366Z,5.73
2023-04-02T16:54:01.723Z,10.27
2023-04-02T16:57:24.399Z,13.45
2023-04-02T17:00:35.747Z,16.10
2023-04-02T17:03:52.081Z,15.35
2023-04-02T17:07:16.754Z,7.17
2023-04-02T17:10:40.271Z,7.03
2023-04-02T17:13:47.530Z,6.87
2023-04-02T17:16:53.207Z,6.78
2023-04-02T17:19:59.092Z,6.40
2023-04-02T17:26:07.751Z,5.05
2023-04-02T17:29:17.667Z,4.78
2023-04-02T17:32:32.719Z,3.53
2023-04-02T17:35:49.250Z,3.72
2023-04-02T17:39:25.649Z,4.80
2023-04-02T17:42:47.403Z,12.70
2023-04-02T17:45:56.717Z,11.10
2023-04-02T17:49:44.348Z,9.05
2023-04-02T17:52:59.959Z,8.23
2023-04-02T17:56:06.680Z,5.63
2023-04-02T17:59:43.242Z,4.95
2023-04-02T18:02:57.361Z,6.05
2023-04-02T18:06:00.581Z,7.32
2023-04-02T18:09:19.414Z,8.32
2023-04-02T18:12:57.178Z,7.57
2023-04-02T18:16:02.319Z,8.63
2023-04-02T18:19:16.285Z,7.82
2023-04-02T18:22:53.294Z,7.03
2023-04-02T18:26:02.396Z,5.62
2023-04-02T18:29:27.692Z,3.40
2023-04-02T18:32:43.225Z,3.30
2023-04-02T18:35:59.976Z,2.97
2023-04-02T18:39:21.550Z,3.10
2023-04-02T18:42:50.609Z,2.58
2023-04-02T18:46:05.189Z,2.53
2023-04-02T18:49:26.350Z,2.00
2023-04-02T18:52:30.336Z,1.58
2023-04-02T18:55:33.314Z,1.90
2023-04-02T18:58:53.969Z,2.03
2023-04-02T19:01:58.226Z,1.70
2023-04-02T19:05:03.851Z,1.60
2023-04-02T19:08:14.246Z,1.75
2023-04-02T19:11:31.919Z,1.60
2023-04-02T19:14:35.037Z,1.45
2023-04-02T19:17:44.537Z,1.20
2023-04-02T19:20:57.030Z,1.42
2023-04-02T19:24:11.230Z,1.60
2023-04-02T19:27:23.067Z,1.50
2023-04-02T19:30:52.092Z,1.12
2023-04-02T19:34:07.795Z,0.97
2023-04-02T19:37:23.829Z,1.12
2023-04-02T19:40:54.033Z,1.20
2023-04-02T19:43:57.397Z,1.30
2023-04-02T19:47:00.418Z,1.40
2023-04-02T19:50:04.473Z,1.30
2023-04-02T19:53:07.317Z,1.65
2023-04-02T19:56:10.401Z,1.40
2023-04-02T20:02:19.693Z,1.35
2023-04-02T20:05:22.945Z,1.57
2023-04-02T20:08:26.923Z,1.45
2023-04-02T20:11:30.147Z,1.67
2023-04-02T20:14:33.065Z,3.58
2023-04-02T20:17:36.235Z,0.73
2023-04-02T20:20:40.374Z,0.70
2023-04-02T20:23:43.533Z,0.43
2023-04-02T20:26:46.422Z,0.40
2023-04-02T20:29:49.951Z,0.40
2023-04-02T20:32:52.553Z,0.30
2023-04-02T20:36:02.260Z,0.40
2023-04-02T20:39:07.918Z,0.15
2023-04-02T20:42:11.053Z,0.15
2023-04-02T20:45:13.957Z,0.20
2023-04-02T20:48:16.899Z,0.10
2023-04-02T20:51:19.488Z,0.20
2023-04-02T20:54:37.922Z,0.20
2023-04-02T20:57:40.624Z,0.20
2023-04-02T21:00:44.477Z,0.20
2023-04-02T21:03:47.845Z,0.25
2023-04-02T21:06:56.794Z,0.37
2023-04-02T21:09:59.426Z,0.22
2023-04-02T21:13:02.366Z,0.32
2023-04-02T21:16:36.355Z,0.50
2023-04-02T21:19:39.219Z,0.20
2023-04-02T21:22:41.918Z,0.30
2023-04-02T21:25:57.805Z,0.50
2023-04-02T21:29:00.571Z,0.35
2023-04-02T21:32:17.961Z,0.40
2023-04-02T21:35:23.687Z,0.47
2023-04-02T21:38:26.547Z,0.77
2023-04-02T21:41:31.554Z,0.70
2023-04-02T21:44:34.632Z,0.85
2023-04-02T21:47:37.207Z,0.43
2023-04-02T21:50:40.108Z,0.40
2023-04-02T21:53:43.324Z,0.40
2023-04-02T21:56:47.109Z,0.30
2023-04-02T21:59:49.634Z,0.32
2023-04-02T22:02:52.767Z,0.50
2023-04-02T22:06:08.329Z,0.40
2023-04-02T22:09:13.789Z,0.27
2023-04-02T22:12:17.007Z,0.30
2023-04-02T22:15:19.468Z,0.37
2023-04-02T22:18:22.447Z,0.40
2023-04-02T22:21:26.006Z,0.30
2023-04-02T22:24:29.120Z,0.40
2023-04-02T22:27:31.693Z,0.40
2023-04-02T22:30:34.746Z,0.30
2023-04-02T22:33:37.815Z,0.47
2023-04-02T22:36:41.298Z,0.30
2023-04-02T22:39:44.240Z,0.30
2023-04-02T22:42:48.000Z,0.60
2023-04-02T22:45:51.605Z,0.50
2023-04-02T22:48:54.866Z,0.30
2023-04-02T22:51:57.653Z,0.40
2023-04-02T22:55:00.499Z,0.30
2023-04-02T22:58:03.055Z,0.60
2023-04-02T23:01:13.267Z,1.05
2023-04-02T23:04:16.050Z,1.23
2023-04-02T23:07:18.878Z,1.60
2023-04-02T23:10:21.545Z,1.40
2023-04-02T23:13:24.495Z,1.30
2023-04-02T23:16:28.715Z,2.00
2023-04-02T23:19:31.823Z,2.22
2023-04-02T23:22:36.839Z,2.10
2023-04-02T23:25:41.255Z,2.33
2023-04-02T23:28:44.345Z,2.30
2023-04-02T23:31:47.461Z,2.30
2023-04-02T23:34:50.159Z,2.62
2023-04-02T23:37:52.913Z,2.20
2023-04-02T23:40:55.497Z,2.40
2023-04-02T23:43:58.927Z,2.58
2023-04-02T23:47:02.379Z,2.67
2023-04-02T23:50:05.793Z,2.40
2023-04-02T23:53:08.382Z,2.72
2023-04-02T23:56:11.743Z,2.83
2023-04-02T23:59:14.512Z,2.90
